Time;durP1;ratioP1;P1;durP2;ratioP2;P2;SDS_P1;SDS_P2;PMS_P1;PMS_P2;Temp;Humidity;BMP_temperature;BMP_pressure;BME280_temperature;BME280_humidity;BME280_pressure;Samples;Min_cycle;Max_cycle;Signal;HPM_P1;HPM_P2
2021/06/23 00:07:20;;;;;;;26.17;21.57;;;;;;;21.21;74.28;98440.94;512858;1088;103556;-44
2021/06/23 00:17:30;;;;;;;33.13;24.40;;;;;;;21.05;74.36;98437.78;512873;1089;103059;-44
2021/06/23 00:27:38;;;;;;;37.93;24.93;;;;;;;21.03;74.75;98456.11;512873;1089;103202;-42
2021/06/23 00:37:45;;;;;;;36.50;25.73;;;;;;;20.82;75.80;98459.25;512797;1089;103566;-43
2021/06/23 00:47:54;;;;;;;37.80;26.27;;;;;;;20.89;74.97;98450.78;512925;1088;103490;-42
2021/06/23 00:58:03;;;;;;;34.40;23.73;;;;;;;20.94;74.69;98453.35;512887;1089;103166;-44
2021/06/23 01:08:11;;;;;;;32.90;23.65;;;;;;;21.01;74.78;98437.59;512918;1089;103215;-42
2021/06/23 01:18:20;;;;;;;36.87;25.93;;;;;;;20.98;74.96;98451.65;512874;1089;103458;-44
2021/06/23 01:28:26;;;;;;;;;;;;;;;20.93;75.06;98465.20;513952;1088;103089;-43
2021/06/23 01:38:33;;;;;;;42.27;29.37;;;;;;;20.74;75.07;98478.75;512879;1089;103119;-43
2021/06/23 01:48:41;;;;;;;39.68;26.68;;;;;;;20.54;75.58;98493.38;512990;1089;103141;-43
2021/06/23 01:58:49;;;;;;;31.93;23.93;;;;;;;20.47;75.64;98501.03;512880;1089;103117;-43
2021/06/23 02:08:55;;;;;;;;;;;;;;;20.46;75.58;98504.81;512828;1089;103144;-42
2021/06/23 02:19:06;;;;;;;31.83;21.13;;;;;;;20.51;75.28;98504.71;513103;1089;103600;-43
2021/06/23 02:29:14;;;;;;;26.37;18.60;;;;;;;20.52;75.21;98510.88;512865;1089;103146;-43
2021/06/23 02:39:22;;;;;;;21.75;17.73;;;;;;;20.53;74.92;98512.47;512864;1093;103460;-43
2021/06/23 02:49:28;;;;;;;;;;;;;;;20.40;75.03;98521.30;513168;1089;103098;-42
2021/06/23 02:59:37;;;;;;;26.77;19.17;;;;;;;20.31;75.49;98531.91;512771;1088;103102;-42
2021/06/23 03:09:45;;;;;;;31.67;23.93;;;;;;;20.19;76.06;98564.60;512926;1090;103105;-44
2021/06/23 03:19:53;;;;;;;33.63;24.77;;;;;;;20.13;76.03;98570.36;512955;1089;103422;-43
2021/06/23 03:30:01;;;;;;;29.03;21.10;;;;;;;20.16;76.51;98580.50;512900;1090;103105;-44
2021/06/23 03:40:08;;;;;;;;;;;;;;;20.19;76.10;98588.77;512945;1089;103131;-44
2021/06/23 03:50:18;;;;;;;31.40;21.10;;;;;;;20.25;75.93;98592.16;512908;1089;103119;-45
2021/06/23 04:00:29;;;;;;;31.27;22.97;;;;;;;20.16;75.88;98610.83;513020;1089;103095;-44
2021/06/23 04:10:37;;;;;;;30.87;24.43;;;;;;;20.10;76.33;98614.66;513003;1090;103121;-43
2021/06/23 04:20:44;;;;;;;30.20;22.60;;;;;;;20.04;76.58;98613.15;512776;1089;103121;-43
2021/06/23 04:30:52;;;;;;;33.70;22.40;;;;;;;20.12;76.58;98611.72;512935;1090;103053;-44
2021/06/23 04:41:00;;;;;;;31.25;23.25;;;;;;;20.17;76.50;98628.53;512905;1088;103125;-44
2021/06/23 04:51:08;;;;;;;35.83;23.83;;;;;;;20.29;76.18;98622.70;513045;1092;103492;-44
2021/06/23 05:01:16;;;;;;;32.20;22.23;;;;;;;20.43;76.22;98620.89;512887;1090;103118;-43
2021/06/23 05:11:24;;;;;;;31.15;22.28;;;;;;;20.51;76.52;98630.95;512653;1092;103105;-44
2021/06/23 05:21:35;;;;;;;32.83;19.90;;;;;;;20.76;76.50;98636.98;512963;1090;103096;-44
2021/06/23 05:31:43;;;;;;;36.63;25.90;;;;;;;20.62;76.29;98663.84;512977;1090;103146;-44
2021/06/23 05:41:49;;;;;;;;;;;;;;;20.76;76.59;98659.28;512795;1088;103121;-42
2021/06/23 05:51:56;;;;;;;39.37;26.47;;;;;;;21.26;76.02;98688.25;513018;1088;103440;-42
2021/06/23 06:02:02;;;;;;;;;;;;;;;21.34;75.61;98691.06;512869;1089;103114;-42
2021/06/23 06:12:11;;;;;;;32.93;22.43;;;;;;;21.60;75.88;98702.13;512960;1089;103130;-42
2021/06/23 06:22:19;;;;;;;28.15;21.15;;;;;;;22.59;74.66;98697.81;512887;1088;103572;-42
2021/06/23 06:32:28;;;;;;;40.23;24.67;;;;;;;23.61;73.18;98697.89;513239;1089;103185;-42
2021/06/23 06:42:36;;;;;;;26.87;20.40;;;;;;;23.70;71.92;98706.83;513174;1089;103496;-43
2021/06/23 06:52:44;;;;;;;23.57;20.93;;;;;;;24.17;70.67;98702.45;512915;1088;103459;-43
2021/06/23 07:02:53;;;;;;;22.97;19.43;;;;;;;24.02;69.40;98706.41;512852;1089;103092;-44
2021/06/23 07:13:01;;;;;;;29.20;23.80;;;;;;;23.69;68.90;98727.63;513000;1089;103183;-45
2021/06/23 07:23:08;;;;;;;27.10;21.33;;;;;;;23.47;69.06;98727.68;512867;1088;103153;-43
2021/06/23 07:33:16;;;;;;;23.27;19.23;;;;;;;23.39;69.23;98750.80;513005;1089;103406;-42
2021/06/23 07:43:25;;;;;;;23.53;16.57;;;;;;;23.11;69.41;98790.64;512992;1089;103416;-44
2021/06/23 07:53:40;;;;;;;26.87;19.03;;;;;;;22.61;69.09;98771.86;513262;1089;103504;-45
2021/06/23 08:14:13;;;;;;;25.90;20.87;;;;;;;21.81;70.45;98794.02;512879;1088;103514;-41
2021/06/23 08:24:21;;;;;;;28.50;19.40;;;;;;;21.80;70.31;98788.94;512918;1088;103135;-41
2021/06/23 08:34:29;;;;;;;22.60;17.47;;;;;;;22.03;70.26;98802.20;512816;1088;103143;-41
2021/06/23 08:44:37;;;;;;;18.83;15.00;;;;;;;22.31;70.33;98802.98;513011;1090;103124;-42
2021/06/23 08:54:53;;;;;;;23.02;17.40;;;;;;;22.29;69.82;98812.47;512821;1088;103124;-44
2021/06/23 09:05:01;;;;;;;25.30;18.30;;;;;;;22.54;69.85;98821.90;512808;1088;103422;-44
2021/06/23 09:15:10;;;;;;;19.03;16.87;;;;;;;22.73;69.61;98816.36;512789;1090;103375;-42
2021/06/23 09:25:25;;;;;;;20.50;18.23;;;;;;;22.92;69.54;98825.09;513184;1088;103491;-43
2021/06/23 09:35:33;;;;;;;22.30;17.80;;;;;;;23.19;69.05;98813.41;513029;1088;103146;-43
2021/06/23 09:45:41;;;;;;;25.78;19.18;;;;;;;23.27;68.33;98808.05;512820;1088;103371;-44
2021/06/23 09:55:50;;;;;;;26.80;19.80;;;;;;;23.26;68.13;98817.25;513066;1088;103143;-42
2021/06/23 10:05:58;;;;;;;30.37;21.50;;;;;;;23.67;67.98;98813.53;512940;1089;103111;-43
2021/06/23 10:16:07;;;;;;;38.40;19.43;;;;;;;24.19;66.73;98824.52;512967;1088;103138;-43
2021/06/23 10:26:16;;;;;;;36.37;18.50;;;;;;;23.77;66.81;98845.65;512966;1089;103163;-44
2021/06/23 10:36:23;;;;;;;34.67;19.40;;;;;;;23.77;66.86;98848.34;513041;1088;103460;-44
2021/06/23 10:56:47;;;;;;;32.43;19.30;;;;;;;23.93;66.31;98843.34;513109;1089;103098;-43
2021/06/23 11:06:54;;;;;;;24.67;17.50;;;;;;;24.44;65.48;98837.31;512957;1088;103124;-43
2021/06/23 11:17:10;;;;;;;30.63;19.43;;;;;;;24.20;65.26;98839.61;513045;1089;103100;-44
2021/06/23 11:27:18;;;;;;;29.17;22.20;;;;;;;24.03;64.99;98837.64;512783;1089;103166;-43
2021/06/23 11:37:24;;;;;;;31.87;20.57;;;;;;;24.16;64.46;98833.25;512956;1088;103422;-42
2021/06/23 11:47:32;;;;;;;24.17;20.13;;;;;;;23.97;64.35;98816.50;513041;1089;103102;-43
2021/06/23 12:07:44;;;;;;;;;;;;;;;24.33;64.39;98836.00;513283;1088;103441;-44
2021/06/23 12:17:54;;;;;;;24.53;20.00;;;;;;;24.31;63.93;98840.93;513000;1088;104612;-45
2021/06/23 12:28:03;;;;;;;23.90;20.80;;;;;;;24.72;63.67;98837.81;512913;1088;103396;-43
2021/06/23 12:38:12;;;;;;;21.95;18.10;;;;;;;25.55;63.64;98824.06;512964;1088;103131;-44
2021/06/23 12:48:20;;;;;;;36.50;18.17;;;;;;;26.38;62.29;98806.50;512873;1089;103131;-42
2021/06/23 12:58:28;;;;;;;18.17;16.17;;;;;;;26.47;61.62;98797.17;512910;1089;103051;-41
2021/06/23 13:08:36;;;;;;;17.23;15.43;;;;;;;26.65;60.78;98803.26;512947;1089;103076;-44
2021/06/23 13:18:44;;;;;;;19.20;17.20;;;;;;;26.40;58.94;98815.89;512937;1088;103136;-44
2021/06/23 13:28:52;;;;;;;21.80;16.80;;;;;;;26.10;59.01;98820.52;512874;1089;103115;-45
2021/06/23 13:39:00;;;;;;;20.57;18.03;;;;;;;25.88;59.62;98828.91;512854;1088;103109;-44
2021/06/23 13:49:08;;;;;;;18.13;16.00;;;;;;;26.06;59.93;98822.29;512981;1089;103482;-44
2021/06/23 13:59:19;;;;;;;19.23;16.13;;;;;;;26.26;60.25;98813.41;512931;1088;103131;-43
2021/06/23 14:09:26;;;;;;;26.47;15.70;;;;;;;26.36;59.79;98808.75;512852;1089;103123;-44
2021/06/23 14:19:34;;;;;;;24.60;17.40;;;;;;;26.14;58.48;98812.52;512846;1088;103099;-44
2021/06/23 14:29:42;;;;;;;26.05;20.85;;;;;;;25.39;59.89;98818.37;512724;1089;103121;-44
2021/06/23 14:39:50;;;;;;;22.67;18.90;;;;;;;24.83;60.44;98832.88;512873;1089;103616;-44
2021/06/23 14:49:58;;;;;;;22.93;18.50;;;;;;;24.76;60.84;98835.27;512862;1089;103086;-43
2021/06/23 15:00:07;;;;;;;22.23;19.83;;;;;;;24.69;60.88;98824.14;512854;1088;103100;-42
2021/06/23 15:10:19;;;;;;;25.73;18.37;;;;;;;24.83;61.50;98843.69;513059;1089;103057;-43
2021/06/23 15:20:27;;;;;;;24.20;19.07;;;;;;;24.62;61.53;98851.66;512903;1089;103135;-41
2021/06/23 15:30:36;;;;;;;33.40;19.90;;;;;;;24.46;61.67;98847.80;512927;1088;103396;-40
2021/06/23 15:40:43;;;;;;;;;;;;;;;24.64;61.98;98845.93;513013;1089;103113;-41
2021/06/23 15:50:51;;;;;;;22.17;17.43;;;;;;;24.74;61.88;98827.47;512868;1088;103100;-43
2021/06/23 16:01:00;;;;;;;35.17;19.87;;;;;;;24.38;62.03;98846.69;512789;1089;103044;-42
2021/06/23 16:11:07;;;;;;;27.47;20.07;;;;;;;24.10;62.39;98858.80;512763;1090;103479;-44
2021/06/23 16:21:15;;;;;;;23.80;17.33;;;;;;;23.98;62.91;98864.80;513171;1090;103113;-42
2021/06/23 16:31:22;;;;;;;39.37;18.97;;;;;;;23.88;63.56;98865.86;512970;1088;103872;-43
2021/06/23 16:41:30;;;;;;;36.53;19.37;;;;;;;23.79;63.70;98875.83;512786;1090;103210;-42
2021/06/23 16:51:39;;;;;;;24.00;18.37;;;;;;;23.56;64.00;98882.38;512811;1088;103460;-42
2021/06/23 17:11:55;;;;;;;26.33;19.73;;;;;;;23.03;64.84;98911.95;513035;1089;103047;-43
2021/06/23 17:22:02;;;;;;;31.43;18.83;;;;;;;22.81;65.74;98900.03;513008;1088;103100;-43
2021/06/23 17:32:10;;;;;;;23.80;18.60;;;;;;;22.74;65.80;98896.92;512907;1089;103102;-44
2021/06/23 17:42:17;;;;;;;24.33;20.17;;;;;;;22.57;66.40;98892.16;512792;1089;103511;-43
2021/06/23 17:52:25;;;;;;;23.30;18.93;;;;;;;22.51;66.80;98903.34;512804;1088;103111;-43
2021/06/23 18:02:34;;;;;;;30.80;20.83;;;;;;;22.30;67.20;98903.75;513009;1090;103575;-42
2021/06/23 18:12:41;;;;;;;29.13;22.47;;;;;;;22.06;67.40;98916.61;512897;1089;103402;-43
2021/06/23 18:22:49;;;;;;;29.87;21.27;;;;;;;22.02;67.23;98911.00;512995;1088;103060;-41
2021/06/23 18:32:57;;;;;;;30.27;22.03;;;;;;;21.97;67.53;98900.30;512811;1089;103178;-40
2021/06/23 18:43:05;;;;;;;29.97;21.73;;;;;;;21.85;67.67;98900.00;513039;1090;103269;-43
2021/06/23 18:53:12;;;;;;;35.50;24.37;;;;;;;21.74;68.25;98885.11;513048;1091;103112;-41
2021/06/23 19:03:19;;;;;;;31.23;22.27;;;;;;;21.68;68.34;98907.83;513003;1089;103242;-41
2021/06/23 19:13:27;;;;;;;31.60;22.75;;;;;;;21.58;68.77;98921.47;512991;1090;103491;-41
2021/06/23 19:23:36;;;;;;;36.37;25.50;;;;;;;21.63;69.01;98916.00;512997;1090;103111;-42
2021/06/23 19:33:43;;;;;;;34.70;25.57;;;;;;;21.65;69.27;98913.80;512790;1089;103489;-42
2021/06/23 19:43:51;;;;;;;34.63;26.78;;;;;;;21.52;69.12;98933.38;512996;1091;103123;-40
2021/06/23 19:53:59;;;;;;;33.17;24.17;;;;;;;21.48;69.00;98922.41;513000;1089;103422;-43
2021/06/23 20:04:06;;;;;;;30.20;22.47;;;;;;;21.44;69.26;98916.83;512820;1090;103135;-43
2021/06/23 20:14:13;;;;;;;33.27;23.67;;;;;;;21.37;69.52;98897.58;513102;1088;103100;-43
2021/06/23 20:24:20;;;;;;;40.20;24.53;;;;;;;21.28;69.59;98895.83;512898;1092;103131;-42
2021/06/23 20:44:35;;;;;;;36.97;24.33;;;;;;;21.19;70.32;98900.26;512908;1088;103177;-43
2021/06/23 20:54:43;;;;;;;35.33;26.08;;;;;;;21.19;70.15;98886.81;512697;1091;103177;-44
2021/06/23 21:04:51;;;;;;;38.00;26.30;;;;;;;21.15;70.30;98894.67;512771;1088;103505;-43
2021/06/23 21:14:57;;;;;;;;;;;;;;;21.07;70.50;98895.34;512768;1092;103137;-43
2021/06/23 21:25:13;;;;;;;39.50;26.40;;;;;;;21.01;70.59;98902.66;512719;1088;103161;-43
2021/06/23 21:35:21;;;;;;;38.60;24.70;;;;;;;20.94;70.77;98907.61;512807;1089;104285;-43
2021/06/23 21:45:28;;;;;;;35.10;25.73;;;;;;;20.90;71.05;98917.34;512860;1090;103460;-43
2021/06/23 21:55:35;;;;;;;30.97;23.20;;;;;;;20.87;71.43;98906.38;512896;1088;103500;-43
2021/06/23 22:05:44;;;;;;;37.78;25.03;;;;;;;20.87;71.75;98907.18;513017;1089;103453;-44
2021/06/23 22:15:59;;;;;;;27.60;23.10;;;;;;;20.80;71.69;98902.14;512988;1089;103076;-43
2021/06/23 22:26:27;;;;;;;30.87;23.73;;;;;;;20.62;71.49;98886.83;512771;1088;103163;-45
2021/06/23 22:36:35;;;;;;;36.97;24.33;;;;;;;20.48;72.07;98867.92;512929;1089;103145;-43
2021/06/23 22:56:54;;;;;;;35.60;23.33;;;;;;;20.30;72.83;98846.36;512886;1088;103514;-44
2021/06/23 23:07:04;;;;;;;31.77;22.33;;;;;;;20.35;72.63;98849.81;512911;1088;103120;-43
2021/06/23 23:17:11;;;;;;;29.17;22.77;;;;;;;20.38;72.67;98830.43;512896;1088;103712;-45
2021/06/23 23:27:19;;;;;;;32.30;22.33;;;;;;;20.19;72.86;98830.39;512814;1088;103475;-43
2021/06/23 23:37:28;;;;;;;26.48;21.35;;;;;;;20.23;73.32;98831.41;512903;1088;103506;-43
2021/06/23 23:47:36;;;;;;;33.47;23.40;;;;;;;20.18;73.76;98810.00;513023;1088;103116;-42
2021/06/23 23:57:43;;;;;;;30.35;22.20;;;;;;;20.30;73.44;98812.25;512688;1089;103117;-43
